createdAt,value
2023-02-06T00:01:48.894Z,39.2
2023-02-06T00:16:59.109Z,39.1
2023-02-06T00:32:08.682Z,45.8
2023-02-06T00:47:17.963Z,46.7
2023-02-06T01:02:27.971Z,43.7
2023-02-06T01:17:40.417Z,38.7
2023-02-06T01:32:49.025Z,35.5
2023-02-06T01:48:00.390Z,35.4
2023-02-06T02:03:10.340Z,31.3
2023-02-06T02:18:20.665Z,35.7
2023-02-06T02:33:29.993Z,29.5
2023-02-06T02:48:39.309Z,27.2
2023-02-06T03:03:48.846Z,32.5
2023-02-06T03:18:58.858Z,30.1
2023-02-06T03:34:07.818Z,31.1
2023-02-06T03:49:17.187Z,31.3
2023-02-06T04:04:28.537Z,34.4
2023-02-06T04:19:37.931Z,31.7
2023-02-06T04:34:47.442Z,26
2023-02-06T04:49:57.334Z,34.3
2023-02-06T05:05:07.555Z,25.5
2023-02-06T05:20:18.730Z,32
2023-02-06T05:35:28.673Z,26.4
2023-02-06T05:50:39.028Z,59.3
2023-02-06T06:05:48.119Z,31.5
2023-02-06T06:21:00.723Z,34.4
2023-02-06T06:36:10.184Z,42.7
2023-02-06T06:51:19.696Z,32.9
2023-02-06T07:06:29.020Z,27.3
2023-02-06T07:21:38.710Z,37.2
2023-02-06T07:36:48.782Z,32.5
2023-02-06T07:51:59.524Z,37.2
2023-02-06T08:07:09.142Z,41.8
2023-02-06T08:24:16.199Z,54.5
2023-02-06T08:39:27.571Z,46.2
2023-02-06T08:54:39.294Z,40.1
2023-02-06T09:09:49.384Z,42.5
2023-02-06T09:24:59.540Z,39.3
2023-02-06T09:40:11.587Z,33
2023-02-06T09:55:20.907Z,38.5
2023-02-06T10:10:30.577Z,34.3
2023-02-06T10:25:40.679Z,38.3
2023-02-06T10:40:50.295Z,34.9
2023-02-06T10:56:02.621Z,25.9
2023-02-06T11:11:12.270Z,40
2023-02-06T11:26:21.844Z,22.6
2023-02-06T11:41:34.205Z,19.6
2023-02-06T11:56:46.523Z,19.6
2023-02-06T12:11:56.161Z,19.6
2023-02-06T12:27:05.989Z,17.2
2023-02-06T12:42:15.816Z,19.5
2023-02-06T12:57:25.077Z,12.4
2023-02-06T13:12:35.027Z,21.2
2023-02-06T13:27:45.011Z,19.4
2023-02-06T13:42:58.371Z,13.9
2023-02-06T13:58:06.281Z,12.6
2023-02-06T14:13:18.273Z,10.9
2023-02-06T14:28:27.371Z,17.9
2023-02-06T14:43:36.079Z,23
2023-02-06T14:58:44.973Z,17.5
2023-02-06T15:13:54.574Z,15.3
2023-02-06T15:29:03.858Z,35.4
2023-02-06T15:44:12.541Z,18
2023-02-06T15:59:21.548Z,17.1
2023-02-06T16:14:30.962Z,14.1
2023-02-06T16:29:40.175Z,14.9
2023-02-06T16:44:50.468Z,11.6
2023-02-06T17:00:02.114Z,12.9
2023-02-06T17:15:12.351Z,8.4
2023-02-06T17:30:22.142Z,21.9
2023-02-06T17:45:31.343Z,26
2023-02-06T18:00:40.806Z,26.9
2023-02-06T18:15:50.362Z,11.6
2023-02-06T18:31:01.256Z,9.9
2023-02-06T18:46:10.679Z,15.4
2023-02-06T19:01:20.072Z,24.9
2023-02-06T19:16:29.600Z,17
2023-02-06T19:31:38.183Z,16.6
2023-02-06T19:46:47.818Z,17.1
2023-02-06T20:01:59.872Z,13.9
2023-02-06T20:17:09.350Z,18.5
2023-02-06T20:32:18.080Z,19.1
2023-02-06T20:47:27.623Z,38.2
2023-02-06T21:02:36.148Z,20.2
2023-02-06T21:17:45.934Z,14.4
2023-02-06T21:32:57.644Z,20.3
2023-02-06T21:48:07.481Z,18.3
2023-02-06T22:03:17.024Z,18.3
2023-02-06T22:18:26.702Z,17.2
2023-02-06T22:33:35.944Z,17.1
2023-02-06T22:48:45.439Z,12.8
2023-02-06T23:03:54.885Z,19.1
2023-02-06T23:19:04.033Z,22.2
2023-02-06T23:34:13.698Z,14.4
2023-02-06T23:49:22.457Z,17.1
